Time;durP1;ratioP1;P1;durP2;ratioP2;P2;SDS_P1;SDS_P2;PMS_P1;PMS_P2;Temp;Humidity;BMP_temperature;BMP_pressure;BME280_temperature;BME280_humidity;BME280_pressure;Samples;Min_cycle;Max_cycle;Signal;HPM_P1;HPM_P2
2023/06/01 00:01:47;;;;;;;4.25;2.55;;;;;;;;;;4963554;28;20050;-83
2023/06/01 00:04:13;;;;;;;4.03;2.05;;;;;;;;;;4963588;29;20055;-82
2023/06/01 00:06:40;;;;;;;2.17;1.67;;;;;;;;;;4963838;28;20032;-83
2023/06/01 00:09:06;;;;;;;4.00;2.10;;;;;;;;;;4965276;28;20083;-81
2023/06/01 00:11:32;;;;;;;2.97;1.95;;;;;;;;;;4964353;29;20034;-81
2023/06/01 00:13:58;;;;;;;2.75;1.58;;;;;;;;;;4964370;29;20015;-83
2023/06/01 00:16:24;;;;;;;5.30;2.05;;;;;;;;;;4964305;29;20027;-82
2023/06/01 00:18:55;;;;;;;3.08;1.75;;;;;;;;;;4964072;28;20034;-81
2023/06/01 00:21:21;;;;;;;2.70;1.60;;;;;;;;;;4976885;28;20023;-81
2023/06/01 00:23:48;;;;;;;4.95;2.08;;;;;;;;;;4964209;28;20134;-82
2023/06/01 00:26:14;;;;;;;4.70;1.50;;;;;;;;;;4963058;29;20034;-82
2023/06/01 00:28:40;;;;;;;8.65;2.55;;;;;;;;;;4962320;29;20083;-82
2023/06/01 00:31:06;;;;;;;3.78;1.30;;;;;;;;;;4962368;28;20023;-81
2023/06/01 00:33:32;;;;;;;4.10;1.83;;;;;;;;;;4962088;29;20030;-82
2023/06/01 00:35:58;;;;;;;3.65;2.15;;;;;;;;;;4961444;29;20035;-82
2023/06/01 00:38:24;;;;;;;3.63;1.73;;;;;;;;;;4951935;29;20099;-81
2023/06/01 00:40:51;;;;;;;3.15;1.88;;;;;;;;;;4961378;28;20038;-81
2023/06/01 00:43:17;;;;;;;4.68;1.60;;;;;;;;;;4961874;28;20039;-82
2023/06/01 00:45:43;;;;;;;2.45;1.88;;;;;;;;;;4961128;29;20026;-82
2023/06/01 00:48:10;;;;;;;1.83;1.52;;;;;;;;;;4961148;28;20035;-82
2023/06/01 00:50:36;;;;;;;4.00;1.65;;;;;;;;;;4960876;28;20031;-82
2023/06/01 00:53:03;;;;;;;2.58;1.52;;;;;;;;;;4961999;29;20027;-82
2023/06/01 00:55:29;;;;;;;2.53;1.73;;;;;;;;;;4960400;29;20023;-82
2023/06/01 00:57:55;;;;;;;3.08;1.75;;;;;;;;;;4961312;28;20022;-82
2023/06/01 01:00:22;;;;;;;3.53;1.80;;;;;;;;;;4961829;28;20023;-82
2023/06/01 01:02:49;;;;;;;1.88;1.55;;;;;;;;;;4959941;29;20027;-80
2023/06/01 01:05:16;;;;;;;2.72;2.08;;;;;;;;;;4960518;28;20015;-81
2023/06/01 01:07:42;;;;;;;4.72;1.98;;;;;;;;;;4960375;29;20050;-82
2023/06/01 01:10:08;;;;;;;6.47;1.95;;;;;;;;;;4960446;29;20014;-81
2023/06/01 01:12:40;;;;;;;1.52;1.42;;;;;;;;;;4957453;28;20031;-82
2023/06/01 01:15:27;;;;;;;4.22;2.10;;;;;;;;;;4958622;29;20039;-80
2023/06/01 01:17:57;;;;;;;3.65;2.03;;;;;;;;;;4959255;29;20031;-82
2023/06/01 01:20:24;;;;;;;1.95;1.70;;;;;;;;;;4963448;28;20012;-81
2023/06/01 01:23:05;;;;;;;2.15;1.95;;;;;;;;;;4961985;29;20015;-82
2023/06/01 01:25:50;;;;;;;2.05;1.65;;;;;;;;;;4963312;28;20091;-82
2023/06/01 01:28:19;;;;;;;3.30;2.20;;;;;;;;;;4962116;28;20122;-82
2023/06/01 01:31:13;;;;;;;3.42;1.92;;;11.20;99.90;;;;;;4958838;29;20108;-81
2023/06/01 01:33:45;;;;;;;3.42;1.67;;;;;;;;;;4977140;28;20055;-81
2023/06/01 01:36:18;;;;;;;2.45;1.90;;;11.20;99.90;;;;;;4960427;29;20015;-82
2023/06/01 01:38:44;;;;;;;1.92;1.42;;;;;;;;;;4975931;28;20062;-81
2023/06/01 01:41:10;;;;;;;4.13;2.63;;;;;;;;;;4958996;29;20035;-81
2023/06/01 01:43:37;;;;;;;3.13;1.75;;;;;;;;;;4958799;28;20074;-81
2023/06/01 01:46:09;;;;;;;2.03;1.80;;;;;;;;;;4958848;29;20007;-81
2023/06/01 01:48:42;;;;;;;1.90;1.65;;;;;;;;;;4977631;28;20039;-82
2023/06/01 01:51:24;;;;;;;1.63;1.50;;;11.00;99.90;;;;;;4959902;29;20079;-82
2023/06/01 01:53:52;;;;;;;1.98;1.80;;;;;;;;;;4977124;29;20090;-81
2023/06/01 01:56:19;;;;;;;3.45;1.70;;;;;;;;;;4958234;29;20062;-82
2023/06/01 01:58:45;;;;;;;1.58;1.42;;;;;;;;;;4960177;29;20035;-81
2023/06/01 02:01:33;;;;;;;5.25;1.90;;;;;;;;;;4959939;29;20035;-82
2023/06/01 02:04:03;;;;;;;2.85;2.05;;;;;;;;;;4941552;29;20042;-82
2023/06/01 02:06:30;;;;;;;7.60;2.65;;;;;;;;;;4959341;29;20096;-79
2023/06/01 02:08:56;;;;;;;3.17;1.60;;;;;;;;;;4958406;29;20054;-81
2023/06/01 02:11:22;;;;;;;2.75;1.67;;;;;;;;;;4959315;29;20023;-81
2023/06/01 02:13:48;;;;;;;2.47;1.80;;;;;;;;;;4957674;28;20027;-81
2023/06/01 02:16:15;;;;;;;4.45;2.30;;;;;;;;;;4959727;29;20027;-82
2023/06/01 02:18:45;;;;;;;3.15;2.05;;;;;;;;;;4960021;29;20043;-81
2023/06/01 02:21:12;;;;;;;3.60;2.03;;;;;;;;;;4977306;29;20019;-81
2023/06/01 02:23:39;;;;;;;1.55;1.42;;;;;;;;;;4958711;28;20023;-81
2023/06/01 02:26:05;;;;;;;4.65;1.88;;;;;;;;;;4954769;29;20059;-81
2023/06/01 02:28:31;;;;;;;4.53;1.70;;;;;;;;;;4970512;29;20120;-81
2023/06/01 02:30:57;;;;;;;2.17;2.00;;;;;;;;;;4969900;29;20053;-80
2023/06/01 02:33:24;;;;;;;2.40;1.70;;;;;;;;;;4970406;29;20082;-81
2023/06/01 02:35:51;;;;;;;4.57;2.33;;;;;;;;;;4954250;29;20053;-82
2023/06/01 02:38:17;;;;;;;2.05;1.85;;;;;;;;;;4953828;29;20031;-81
2023/06/01 02:40:43;;;;;;;1.67;1.58;;;;;;;;;;4955324;28;20024;-82
2023/06/01 02:43:09;;;;;;;2.10;1.90;;;;;;;;;;4953503;29;20042;-81
2023/06/01 02:45:35;;;;;;;2.08;1.80;;;;;;;;;;4956602;29;20019;-81
2023/06/01 02:48:01;;;;;;;3.85;1.67;;;;;;;;;;4959045;28;20039;-81
2023/06/01 02:50:27;;;;;;;3.38;2.20;;;;;;;;;;4957885;29;20135;-81
2023/06/01 02:52:53;;;;;;;1.80;1.63;;;;;;;;;;4975706;28;20031;-82
2023/06/01 02:55:19;;;;;;;2.35;1.55;;;;;;;;;;4918585;29;1237955;-81
2023/06/01 02:57:45;;;;;;;1.90;1.48;;;;;;;;;;4978383;29;20063;-81
2023/06/01 03:00:15;;;;;;;1.83;1.63;;;;;;;;;;4962634;29;20027;-82
2023/06/01 03:02:48;;;;;;;10.25;2.72;;;;;;;;;;4962622;28;20018;-82
2023/06/01 03:05:14;;;;;;;1.50;1.40;;;;;;;;;;4978069;29;20035;-81
2023/06/01 03:07:46;;;;;;;3.17;1.67;;;10.60;99.90;;;;;;4961840;29;20049;-81
2023/06/01 03:10:12;;;;;;;6.47;2.30;;;;;;;;;;4979168;29;20026;-81
2023/06/01 03:12:38;;;;;;;5.50;1.83;;;10.60;99.90;;;;;;4961818;29;20027;-81
2023/06/01 03:15:05;;;;;;;13.02;1.55;;;;;;;;;;4978809;28;20039;-81
2023/06/01 03:17:31;;;;;;;2.42;1.40;;;;;;;;;;4963471;29;20022;-81
2023/06/01 03:19:58;;;;;;;4.63;2.50;;;;;;;;;;4960561;29;20114;-81
2023/06/01 03:22:24;;;;;;;5.13;2.20;;;;;;;;;;4962282;28;20058;-82
2023/06/01 03:24:50;;;;;;;10.93;1.88;;;;;;;;;;4961387;29;20071;-81
2023/06/01 03:27:19;;;;;;;5.07;1.42;;;;;;;;;;4961512;28;20019;-81
2023/06/01 03:29:46;;;;;;;5.53;2.10;;;;;;;;;;4961059;29;20035;-81
2023/06/01 03:32:12;;;;;;;3.15;1.83;;;;;;;;;;4961564;29;20015;-82
2023/06/01 03:34:40;;;;;;;1.73;1.58;;;;;;;;;;4959615;29;20030;-82
2023/06/01 03:37:07;;;;;;;3.00;1.95;;;;;;;;;;4959229;28;20419;-81
2023/06/01 03:39:34;;;;;;;2.17;1.55;;;;;;;;;;4957826;28;20330;-81
2023/06/01 03:42:00;;;;;;;6.07;1.98;;;;;;;;;;4956704;29;20031;-81
2023/06/01 03:44:26;;;;;;;2.03;1.80;;;;;;;;;;4957643;29;20035;-81
2023/06/01 03:46:52;;;;;;;2.58;2.38;;;;;;;;;;4955117;29;20066;-80
2023/06/01 03:49:18;;;;;;;1.88;1.55;;;;;;;;;;4956669;29;20031;-81
2023/06/01 03:51:44;;;;;;;2.25;1.58;;;;;;;;;;4957999;29;20017;-81
2023/06/01 03:54:11;;;;;;;3.63;1.83;;;;;;;;;;4954749;29;20047;-82
2023/06/01 03:56:36;;;;;;;11.50;2.40;;;11.10;99.90;;;;;;4974739;28;20042;-80
2023/06/01 03:59:02;;;;;;;2.38;1.52;;;11.10;99.90;;;;;;4990448;28;20007;-77
2023/06/01 04:01:33;;;;;;;6.15;2.13;;;11.20;99.90;;;;;;4975978;29;20031;-81
2023/06/01 04:03:59;;;;;;;4.47;2.03;;;;;;;;;;4990744;28;20050;-81
2023/06/01 04:06:29;;;;;;;2.53;1.95;;;;;;;;;;4957857;29;20003;-81
2023/06/01 04:08:57;;;;;;;4.82;2.63;;;;;;;;;;4957559;29;20027;-81
2023/06/01 04:11:23;;;;;;;3.50;1.95;;;;;;;;;;4954412;29;20023;-81
2023/06/01 04:13:49;;;;;;;5.85;2.30;;;11.40;99.90;;;;;;4950291;29;20032;-81
2023/06/01 04:16:15;;;;;;;3.67;2.00;;;11.40;99.90;;;;;;4958832;29;20473;-81
2023/06/01 04:18:41;;;;;;;2.45;1.73;;;11.50;99.90;;;;;;4958174;28;20027;-82
2023/06/01 04:21:09;;;;;;;4.07;2.00;;;;;;;;;;4955868;28;20157;-80
2023/06/01 04:23:35;;;;;;;5.80;2.90;;;;;;;;;;4953252;29;20107;-80
2023/06/01 04:26:02;;;;;;;4.85;2.03;;;11.70;99.90;;;;;;4952662;29;20024;-80
2023/06/01 04:28:28;;;;;;;3.28;2.20;;;;;;;;;;4953508;29;20077;-81
2023/06/01 04:30:54;;;;;;;2.80;1.50;;;11.90;99.90;;;;;;4954308;29;20079;-80
2023/06/01 04:33:24;;;;;;;4.18;1.98;;;12.10;99.90;;;;;;4953386;29;20023;-81
2023/06/01 04:35:52;;;;;;;4.72;1.60;;;12.10;99.90;;;;;;4952242;29;20027;-81
2023/06/01 04:38:19;;;;;;;3.08;2.13;;;;;;;;;;4952089;29;20026;-81
2023/06/01 04:40:45;;;;;;;5.95;1.98;;;;;;;;;;4953998;29;20027;-81
2023/06/01 04:43:12;;;;;;;1.88;1.77;;;12.70;99.90;;;;;;4957042;28;20147;-81
2023/06/01 04:45:38;;;;;;;2.50;1.58;;;;;;;;;;4958569;29;20026;-81
2023/06/01 04:48:08;;;;;;;2.42;1.58;;;;;;;;;;4958197;29;20078;-82
2023/06/01 04:50:35;;;;;;;3.47;2.05;;;;;;;;;;4963455;29;20124;-83
2023/06/01 04:53:01;;;;;;;1.63;1.52;;;13.80;99.90;;;;;;4936838;29;20026;-83
2023/06/01 04:55:28;;;;;;;4.03;1.88;;;14.20;99.90;;;;;;4949596;29;20055;-81
2023/06/01 04:57:55;;;;;;;2.13;1.90;;;;;;;;;;4942189;29;20027;-82
2023/06/01 05:00:20;;;;;;;3.25;1.90;;;14.20;99.90;;;;;;4936832;29;20034;-83
2023/06/01 05:02:47;;;;;;;3.75;1.85;;;14.00;99.90;;;;;;4936073;29;20035;-83
2023/06/01 05:05:16;;;;;;;2.80;2.00;;;14.00;99.90;;;;;;4939394;29;20025;-81
2023/06/01 05:07:44;;;;;;;2.53;1.70;;;14.00;99.90;;;;;;4957721;28;20039;-82
2023/06/01 05:10:16;;;;;;;3.85;1.75;;;14.00;99.90;;;;;;4950936;29;20023;-81
2023/06/01 05:12:47;;;;;;;2.67;1.60;;;14.00;99.90;;;;;;4960844;29;20074;-82
2023/06/01 05:15:13;;;;;;;4.32;2.28;;;;;;;;;;4948215;28;20042;-82
2023/06/01 05:17:39;;;;;;;1.98;1.70;;;14.20;99.90;;;;;;4944739;29;20057;-82
2023/06/01 05:20:08;;;;;;;5.22;1.83;;;14.30;99.90;;;;;;4937002;29;20050;-81
2023/06/01 05:22:33;;;;;;;;;;;14.40;99.90;;;;;;4937554;29;20069;-83
2023/06/01 05:25:00;;;;;;;4.68;2.80;;;;;;;;;;4939097;29;19907;-81
2023/06/01 05:27:26;;;;;;;3.53;1.92;;;14.60;99.90;;;;;;4949580;29;20110;-82
2023/06/01 05:29:52;;;;;;;3.00;2.42;;;14.60;99.90;;;;;;4963729;28;20020;-82
2023/06/01 05:32:18;;;;;;;3.70;1.90;;;;;;;;;;4964178;29;20027;-83
2023/06/01 05:34:43;;;;;;;2.72;1.55;;;14.90;99.90;;;;;;4947162;29;20022;-82
2023/06/01 05:37:09;;;;;;;4.00;2.33;;;15.00;99.90;;;;;;4956914;29;20031;-83
2023/06/01 05:39:35;;;;;;;3.53;2.20;;;15.10;99.90;;;;;;4949777;29;20023;-82
2023/06/01 05:42:02;;;;;;;2.47;1.67;;;15.20;99.90;;;;;;4968851;29;20094;-82
2023/06/01 05:44:27;;;;;;;3.40;2.13;;;15.30;99.90;;;;;;4954025;28;20059;-83
2023/06/01 05:46:54;;;;;;;3.03;2.03;;;15.30;99.90;;;;;;4960396;28;20042;-81
2023/06/01 05:49:20;;;;;;;4.60;2.22;;;15.50;99.90;;;;;;4947126;29;20027;-82
2023/06/01 05:51:46;;;;;;;7.18;2.20;;;;;;;;;;4942326;29;20034;-82
2023/06/01 05:54:20;;;;;;;4.63;2.22;;;16.00;99.90;;;;;;4970863;28;20058;-81
2023/06/01 05:56:45;;;;;;;5.65;2.63;;;16.00;99.90;;;;;;4945976;29;20031;-79
2023/06/01 05:59:11;;;;;;;3.17;1.80;;;16.20;99.90;;;;;;4937982;29;20477;-79
2023/06/01 06:01:37;;;;;;;5.88;2.13;;;16.40;99.90;;;;;;4937895;29;20418;-79
2023/06/01 06:04:02;;;;;;;6.57;2.47;;;16.40;97.80;;;;;;4937176;29;20054;-79
2023/06/01 06:06:28;;;;;;;6.25;2.10;;;16.50;97.10;;;;;;4936078;29;20035;-79
2023/06/01 06:08:54;;;;;;;3.15;2.10;;;16.60;96.20;;;;;;4934191;29;20028;-78
2023/06/01 06:11:21;;;;;;;2.40;2.20;;;16.70;95.70;;;;;;4913952;29;20031;-79
2023/06/01 06:13:49;;;;;;;5.47;2.78;;;16.90;94.90;;;;;;4932742;29;20032;-79
2023/06/01 06:16:15;;;;;;;3.77;2.03;;;17.10;91.10;;;;;;4915589;29;20111;-79
2023/06/01 06:18:41;;;;;;;4.95;2.22;;;17.20;91.50;;;;;;4935184;29;20201;-78
2023/06/01 06:21:06;;;;;;;2.33;1.98;;;17.40;90.10;;;;;;4934894;29;20027;-79
2023/06/01 06:23:32;;;;;;;4.40;1.77;;;17.50;89.00;;;;;;4939181;29;20044;-79
2023/06/01 06:25:58;;;;;;;8.70;2.63;;;17.50;87.50;;;;;;4928056;29;20047;-79
2023/06/01 06:28:26;;;;;;;4.22;2.75;;;17.50;86.50;;;;;;4946184;29;20027;-79
2023/06/01 06:30:53;;;;;;;4.57;2.42;;;;;;;;;;4946208;29;20011;-82
2023/06/01 06:33:19;;;;;;;4.05;2.10;;;17.50;88.80;;;;;;4958725;29;20140;-78
2023/06/01 06:35:45;;;;;;;9.40;2.38;;;17.60;86.50;;;;;;4951357;29;20085;-82
2023/06/01 06:38:13;;;;;;;4.00;2.30;;;;;;;;;;4952045;29;20047;-84
2023/06/01 06:40:38;;;;;;;3.90;2.22;;;19.40;77.40;;;;;;4934729;29;20140;-84
2023/06/01 06:43:04;;;;;;;2.92;2.38;;;20.20;72.50;;;;;;4934489;29;20039;-79
2023/06/01 06:45:30;;;;;;;3.55;2.30;;;21.50;66.20;;;;;;4950379;29;20027;-82
2023/06/01 06:47:55;;;;;;;3.40;2.40;;;21.70;65.50;;;;;;4933070;29;20222;-79
2023/06/01 06:50:21;;;;;;;6.63;2.63;;;22.60;61.00;;;;;;4933030;29;20089;-81
2023/06/01 06:52:47;;;;;;;5.10;2.03;;;22.60;60.60;;;;;;4937062;29;20538;-80
2023/06/01 06:55:12;;;;;;;4.28;2.10;;;23.10;60.80;;;;;;4959026;29;20315;-79
2023/06/01 06:57:39;;;;;;;9.02;2.63;;;23.50;59.80;;;;;;4940043;29;20061;-76
2023/06/01 07:00:19;;;;;;;6.03;1.88;;;24.20;57.10;;;;;;4944427;29;20022;-82
2023/06/01 07:02:45;;;;;;;7.05;2.10;;;24.20;57.00;;;;;;4942041;29;20031;-81
2023/06/01 07:05:11;;;;;;;5.82;2.03;;;;;;;;;;4945170;29;20030;-86
2023/06/01 07:07:55;;;;;;;3.92;2.22;;;;;;;;;;4957977;29;20031;-84
2023/06/01 07:10:21;;;;;;;3.40;2.38;;;23.90;56.30;;;;;;4957040;29;20030;-79
2023/06/01 07:12:47;;;;;;;2.95;2.50;;;;;;;;;;4949880;29;20105;-79
2023/06/01 07:15:16;;;;;;;3.45;2.65;;;23.00;58.00;;;;;;4951630;29;20027;-82
2023/06/01 07:18:11;;;;;;;5.03;2.65;;;22.50;59.60;;;;;;4965534;28;20065;-81
2023/06/01 07:20:37;;;;;;;4.38;2.80;;;;;;;;;;4951153;28;20039;-82
2023/06/01 07:26:06;;;;;;;4.60;2.08;;;22.60;58.20;;;;;;4995850;28;20174;-84
2023/06/01 07:28:32;;;;;;;3.45;2.53;;;;;;;;;;4975235;28;20164;-82
2023/06/01 07:30:58;;;;;;;3.67;2.65;;;22.90;59.50;;;;;;4962795;28;20748;-81
2023/06/01 07:33:25;;;;;;;10.55;2.58;;;22.80;60.70;;;;;;4956068;28;20336;-81
2023/06/01 07:35:52;;;;;;;4.47;2.75;;;22.80;61.60;;;;;;4955729;28;20165;-82
2023/06/01 07:38:19;;;;;;;4.32;2.45;;;23.70;59.00;;;;;;4955137;28;20034;-80
2023/06/01 07:40:46;;;;;;;4.30;2.42;;;23.70;59.60;;;;;;4955319;28;20069;-83
2023/06/01 07:43:11;;;;;;;4.93;2.58;;;24.20;58.10;;;;;;4954915;28;20173;-78
2023/06/01 07:45:39;;;;;;;7.65;3.13;;;24.50;56.80;;;;;;4954688;28;20133;-78
2023/06/01 07:48:05;;;;;;;8.18;2.35;;;24.20;57.90;;;;;;4967088;28;20475;-78
2023/06/01 07:50:31;;;;;;;4.80;2.50;;;24.40;57.30;;;;;;4991843;28;20022;-78
2023/06/01 07:52:57;;;;;;;5.93;2.60;;;24.30;59.50;;;;;;4993217;28;20058;-78
2023/06/01 07:55:23;;;;;;;4.28;2.42;;;24.30;58.50;;;;;;4975472;28;20037;-78
2023/06/01 07:57:50;;;;;;;7.70;2.60;;;24.20;57.60;;;;;;4983644;28;20027;-79
2023/06/01 08:00:17;;;;;;;2.83;1.92;;;24.20;58.00;;;;;;4973688;28;20487;-79
2023/06/01 08:02:43;;;;;;;4.97;2.47;;;24.50;58.20;;;;;;4992111;28;20034;-79
2023/06/01 08:05:10;;;;;;;2.90;2.50;;;24.30;58.30;;;;;;4993225;28;20037;-78
2023/06/01 08:07:37;;;;;;;8.18;2.75;;;24.00;58.40;;;;;;4992831;28;20019;-79
2023/06/01 08:10:08;;;;;;;5.15;2.97;;;23.50;60.20;;;;;;4992332;28;20325;-79
2023/06/01 08:12:35;;;;;;;4.88;2.67;;;23.70;59.20;;;;;;4993815;28;20467;-79
2023/06/01 08:15:01;;;;;;;3.08;2.42;;;23.50;59.30;;;;;;4996512;28;20053;-81
2023/06/01 08:17:26;;;;;;;4.18;2.47;;;23.70;58.30;;;;;;4976106;28;20475;-79
2023/06/01 08:19:52;;;;;;;4.85;2.60;;;23.80;57.60;;;;;;4993081;28;20422;-80
2023/06/01 08:22:20;;;;;;;5.57;2.70;;;24.00;57.30;;;;;;4992564;28;20597;-78
2023/06/01 08:24:47;;;;;;;2.67;2.25;;;24.00;58.40;;;;;;4974535;28;20058;-79
2023/06/01 08:27:21;;;;;;;4.55;3.10;;;23.60;59.10;;;;;;4992441;28;20026;-79
2023/06/01 08:29:47;;;;;;;3.25;2.80;;;24.20;57.70;;;;;;4992485;28;20081;-79
2023/06/01 08:32:14;;;;;;;4.57;2.70;;;24.30;58.80;;;;;;4979400;28;20033;-78
2023/06/01 08:34:40;;;;;;;6.75;2.97;;;24.40;56.40;;;;;;4972926;28;20027;-78
2023/06/01 08:37:05;;;;;;;6.90;2.92;;;24.30;56.80;;;;;;4972713;28;20085;-80
2023/06/01 08:39:31;;;;;;;6.78;2.45;;;24.30;56.10;;;;;;4972290;28;20031;-81
2023/06/01 08:42:13;;;;;;;3.58;2.35;;;24.10;57.10;;;;;;4982821;28;20030;-78
2023/06/01 08:44:41;;;;;;;5.20;2.78;;;24.00;57.00;;;;;;4992244;28;20479;-79
2023/06/01 08:47:07;;;;;;;8.10;2.97;;;24.20;57.80;;;;;;4992027;28;20031;-79
2023/06/01 08:49:34;;;;;;;4.00;3.25;;;24.10;57.70;;;;;;4992538;28;20129;-79
2023/06/01 08:52:12;;;;;;;5.38;3.28;;;24.00;57.80;;;;;;4991893;28;20045;-79
2023/06/01 08:54:38;;;;;;;8.85;2.97;;;24.10;57.70;;;;;;4991419;28;20113;-78
2023/06/01 08:57:07;;;;;;;5.28;3.42;;;24.20;58.30;;;;;;4991630;28;20023;-79
2023/06/01 08:59:34;;;;;;;6.25;3.03;;;24.30;59.60;;;;;;4993288;28;20069;-79
2023/06/01 09:02:00;;;;;;;10.18;3.35;;;24.10;58.10;;;;;;4990764;28;20061;-79
2023/06/01 09:04:26;;;;;;;4.45;3.05;;;24.80;57.60;;;;;;4991663;28;20061;-79
2023/06/01 09:06:52;;;;;;;5.45;3.00;;;24.80;58.20;;;;;;4974276;28;20023;-78
2023/06/01 09:09:18;;;;;;;9.73;3.22;;;24.80;57.70;;;;;;4991276;28;20022;-79
2023/06/01 09:11:44;;;;;;;10.60;3.92;;;23.50;57.50;;;;;;4983336;28;20361;-79
2023/06/01 09:14:23;;;;;;;7.80;4.07;;;24.20;57.50;;;;;;4970810;28;20031;-76
2023/06/01 09:16:49;;;;;;;6.05;3.08;;;24.30;58.80;;;;;;4972033;28;20033;-77
2023/06/01 09:19:15;;;;;;;4.55;3.20;;;24.60;57.40;;;;;;4971975;28;20023;-76
2023/06/01 09:21:58;;;;;;;4.72;3.15;;;24.90;56.90;;;;;;4971858;28;20055;-76
2023/06/01 09:24:24;;;;;;;4.00;2.75;;;25.20;57.30;;;;;;4971369;28;20027;-79
2023/06/01 09:26:50;;;;;;;3.10;2.80;;;24.90;55.40;;;;;;4969768;28;20037;-77
2023/06/01 09:29:16;;;;;;;3.63;2.72;;;24.80;56.40;;;;;;4953611;28;20452;-77
2023/06/01 09:31:47;;;;;;;5.07;2.80;;;24.70;56.80;;;;;;4959690;28;20022;-81
2023/06/01 09:34:20;;;;;;;7.80;2.63;;;24.90;56.90;;;;;;4990580;28;20019;-78
2023/06/01 09:36:48;;;;;;;8.52;3.08;;;25.10;57.10;;;;;;4988391;28;20050;-79
2023/06/01 09:39:15;;;;;;;4.97;3.13;;;25.30;56.20;;;;;;4971159;28;20412;-78
2023/06/01 09:41:45;;;;;;;4.32;2.88;;;26.00;54.80;;;;;;4988761;28;20121;-78
2023/06/01 09:44:11;;;;;;;2.58;2.38;;;26.00;55.40;;;;;;4970653;28;20045;-78
2023/06/01 09:47:09;;;;;;;8.65;3.53;;;26.20;53.90;;;;;;4971074;28;20033;-79
2023/06/01 09:49:43;;;;;;;2.97;2.78;;;26.40;54.30;;;;;;4977568;28;20243;-79
2023/06/01 09:52:10;;;;;;;5.57;3.08;;;26.30;53.70;;;;;;4989762;28;20014;-79
2023/06/01 09:54:42;;;;;;;9.82;3.65;;;26.50;53.80;;;;;;4989939;28;20440;-78
2023/06/01 09:57:09;;;;;;;5.55;2.75;;;26.10;54.50;;;;;;4973761;28;20037;-78
2023/06/01 09:59:43;;;;;;;5.00;3.00;;;26.20;53.90;;;;;;4991121;28;20022;-80
2023/06/01 10:02:17;;;;;;;5.53;2.53;;;26.20;54.40;;;;;;4990846;28;20477;-79
2023/06/01 10:04:49;;;;;;;5.25;2.65;;;26.20;53.80;;;;;;4973279;28;20502;-78
2023/06/01 10:07:16;;;;;;;3.40;2.95;;;26.50;53.50;;;;;;4990709;28;20104;-80
2023/06/01 10:09:45;;;;;;;3.58;3.15;;;26.40;54.00;;;;;;4988842;28;20033;-79
2023/06/01 10:12:11;;;;;;;6.60;3.20;;;;;;;;;;4990951;28;20026;-78
2023/06/01 10:14:38;;;;;;;4.88;2.80;;;27.00;53.10;;;;;;4989707;28;20042;-79
2023/06/01 10:17:04;;;;;;;6.93;3.10;;;26.70;53.20;;;;;;4990695;28;20018;-79
2023/06/01 10:19:30;;;;;;;5.00;2.72;;;26.50;52.30;;;;;;4973518;28;20117;-79
2023/06/01 10:22:00;;;;;;;6.15;2.90;;;26.50;52.60;;;;;;4972826;28;20056;-80
2023/06/01 10:24:26;;;;;;;20.40;3.75;;;26.70;52.40;;;;;;4990024;28;20103;-79
2023/06/01 10:27:20;;;;;;;5.68;2.85;;;26.40;53.60;;;;;;4988930;28;20077;-79
2023/06/01 10:29:46;;;;;;;5.38;3.10;;;25.80;53.80;;;;;;4972652;28;20365;-80
2023/06/01 10:32:37;;;;;;;9.15;2.58;;;25.80;54.90;;;;;;4990330;28;20034;-78
2023/06/01 10:35:06;;;;;;;6.00;3.25;;;26.50;52.80;;;;;;4972848;28;20076;-80
2023/06/01 10:37:32;;;;;;;6.55;2.47;;;27.30;53.10;;;;;;4990459;28;20049;-80
2023/06/01 10:40:16;;;;;;;3.25;2.45;;;27.90;50.80;;;;;;4989815;28;20105;-81
2023/06/01 10:42:42;;;;;;;4.50;2.65;;;28.00;49.80;;;;;;4973024;28;20053;-83
2023/06/01 10:45:28;;;;;;;3.97;2.72;;;27.90;50.30;;;;;;4990231;28;20034;-78
2023/06/01 10:47:54;;;;;;;9.07;3.28;;;27.30;50.50;;;;;;4990030;28;20030;-78
2023/06/01 10:50:20;;;;;;;10.35;3.33;;;26.80;51.70;;;;;;4989095;28;20026;-77
2023/06/01 10:52:46;;;;;;;11.00;3.10;;;27.10;52.60;;;;;;4988932;28;20023;-82
2023/06/01 10:55:13;;;;;;;2.92;2.38;;;27.30;53.50;;;;;;4989709;28;20109;-77
2023/06/01 10:57:46;;;;;;;4.55;3.17;;;27.60;51.60;;;;;;4990232;28;20019;-77
2023/06/01 11:00:15;;;;;;;8.13;3.08;;;27.60;52.20;;;;;;4988622;28;20022;-78
2023/06/01 11:02:53;;;;;;;;;;;27.50;50.80;;;;;;4972965;28;20105;-78
2023/06/01 11:05:37;;;;;;;5.85;2.80;;;28.40;51.10;;;;;;4972892;28;19965;-78
2023/06/01 11:08:08;;;;;;;5.57;2.72;;;28.70;49.20;;;;;;4994178;28;20057;-78
2023/06/01 11:10:52;;;;;;;5.28;3.00;;;28.40;49.00;;;;;;4976350;28;20109;-77
2023/06/01 11:13:29;;;;;;;10.88;2.60;;;28.70;49.80;;;;;;4976464;28;20022;-79
2023/06/01 11:16:24;;;;;;;7.82;3.13;;;28.30;48.90;;;;;;4977057;28;20387;-81
2023/06/01 11:19:00;;;;;;;5.82;2.10;;;28.00;49.20;;;;;;4988458;28;20057;-81
2023/06/01 11:21:40;;;;;;;3.20;2.15;;;28.20;48.80;;;;;;4994339;28;20402;-80
2023/06/01 11:24:31;;;;;;;4.80;2.72;;;29.10;48.80;;;;;;4993628;28;20030;-81
2023/06/01 11:26:56;;;;;;;5.07;2.78;;;29.00;48.00;;;;;;4994171;28;20446;-82
2023/06/01 11:29:25;;;;;;;6.50;3.03;;;28.80;49.40;;;;;;4992963;28;20057;-81
2023/06/01 11:31:54;;;;;;;4.80;2.95;;;28.80;48.30;;;;;;4976552;28;20022;-80
2023/06/01 11:34:26;;;;;;;8.73;2.88;;;29.40;48.90;;;;;;4993806;28;20060;-81
2023/06/01 11:36:52;;;;;;;4.35;2.90;;;30.10;46.60;;;;;;4973641;28;20062;-80
2023/06/01 11:39:22;;;;;;;3.60;2.60;;;30.30;48.30;;;;;;4972863;28;20077;-77
2023/06/01 11:41:49;;;;;;;6.20;3.25;;;;;;;;;;4957379;28;20023;-79
2023/06/01 11:44:15;;;;;;;5.15;2.78;;;30.90;48.60;;;;;;4973585;28;20030;-79
2023/06/01 11:46:56;;;;;;;8.05;3.00;;;31.90;47.10;;;;;;4971362;28;20023;-80
2023/06/01 11:49:22;;;;;;;4.70;2.88;;;31.60;46.00;;;;;;4955828;28;20168;-82
2023/06/01 11:51:48;;;;;;;7.60;3.40;;;31.00;44.80;;;;;;4955118;28;20447;-82
2023/06/01 11:54:14;;;;;;;4.22;3.03;;;30.80;46.80;;;;;;4955263;28;20030;-82
2023/06/01 11:56:40;;;;;;;5.53;2.88;;;33.10;48.30;;;;;;4955571;28;20034;-82
2023/06/01 11:59:09;;;;;;;6.28;2.88;;;30.60;47.30;;;;;;4955593;28;20503;-82
2023/06/01 12:01:38;;;;;;;;;;;31.00;47.00;;;;;;4955878;28;20027;-82
2023/06/01 12:04:07;;;;;;;8.70;3.47;;;;;;;;;;4971539;28;19918;-84
2023/06/01 12:06:33;;;;;;;8.90;3.22;;;30.60;45.80;;;;;;4971698;28;20030;-84
2023/06/01 12:08:59;;;;;;;5.53;2.88;;;30.20;46.40;;;;;;4972282;28;20030;-82
2023/06/01 12:11:26;;;;;;;3.05;2.72;;;29.60;47.30;;;;;;4956503;28;20088;-81
2023/06/01 12:13:55;;;;;;;5.85;2.53;;;30.10;49.10;;;;;;4973632;28;20023;-78
2023/06/01 12:16:27;;;;;;;5.63;3.40;;;31.00;47.30;;;;;;4956432;28;20027;-80
2023/06/01 12:18:54;;;;;;;4.43;3.00;;;31.00;44.50;;;;;;4973793;28;20031;-82
2023/06/01 12:21:21;;;;;;;6.80;2.90;;;;;;;;;;4962615;28;20046;-80
2023/06/01 12:23:51;;;;;;;7.13;3.47;;;30.00;45.50;;;;;;4991990;28;20084;-84
2023/06/01 12:26:17;;;;;;;3.67;3.05;;;29.90;46.80;;;;;;4974586;28;20034;-81
2023/06/01 12:28:52;;;;;;;8.40;3.05;;;30.20;46.90;;;;;;4991381;28;20102;-79
2023/06/01 12:31:19;;;;;;;7.97;3.13;;;30.70;46.90;;;;;;4974619;28;20026;-79
2023/06/01 12:33:46;;;;;;;7.55;3.60;;;31.10;45.10;;;;;;4991732;28;20111;-79
2023/06/01 12:36:34;;;;;;;4.05;2.92;;;31.10;45.80;;;;;;4992623;28;20750;-80
2023/06/01 12:39:01;;;;;;;;;;;31.00;44.50;;;;;;4975723;28;20026;-77
2023/06/01 12:41:28;;;;;;;5.47;2.88;;;32.30;44.10;;;;;;4991723;28;19901;-77
2023/06/01 12:43:55;;;;;;;4.13;3.13;;;32.30;44.20;;;;;;4975097;28;20362;-77
2023/06/01 12:46:22;;;;;;;3.63;2.92;;;33.10;43.90;;;;;;4992816;28;20490;-78
2023/06/01 12:48:49;;;;;;;6.53;3.22;;;33.00;43.30;;;;;;4975268;28;20030;-78
2023/06/01 12:51:15;;;;;;;3.05;2.72;;;32.70;43.60;;;;;;4975110;28;20018;-79
2023/06/01 12:53:45;;;;;;;7.35;3.67;;;32.70;43.50;;;;;;4974850;28;20125;-79
2023/06/01 12:56:11;;;;;;;6.78;3.50;;;31.90;44.20;;;;;;4974933;28;20072;-77
2023/06/01 12:58:38;;;;;;;10.57;3.25;;;31.10;46.70;;;;;;4974704;28;20026;-80
2023/06/01 13:01:04;;;;;;;8.45;3.45;;;30.30;46.10;;;;;;4974512;28;20030;-76
2023/06/01 13:03:29;;;;;;;6.07;3.33;;;30.70;47.50;;;;;;4991795;28;20030;-77
2023/06/01 13:05:55;;;;;;;8.65;2.45;;;31.20;46.20;;;;;;4974398;28;20026;-81
2023/06/01 13:08:22;;;;;;;5.00;3.45;;;31.30;45.90;;;;;;4992046;28;20030;-78
2023/06/01 13:10:48;;;;;;;6.88;3.00;;;31.40;45.60;;;;;;4974197;28;20173;-78
2023/06/01 13:13:15;;;;;;;5.97;3.45;;;;;;;;;;4975041;28;20506;-81
2023/06/01 13:15:44;;;;;;;5.13;3.00;;;30.90;46.40;;;;;;4992163;28;20148;-80
2023/06/01 13:18:10;;;;;;;8.48;3.67;;;31.40;45.40;;;;;;4974266;28;20443;-76
2023/06/01 13:20:36;;;;;;;5.00;3.05;;;31.80;44.60;;;;;;4991686;28;20022;-79
2023/06/01 13:23:03;;;;;;;46.53;5.50;;;30.40;46.50;;;;;;4973694;28;20419;-80
2023/06/01 13:25:29;;;;;;;11.38;4.18;;;30.10;48.00;;;;;;4974033;28;20443;-76
2023/06/01 13:27:56;;;;;;;9.40;3.38;;;30.50;47.90;;;;;;4991023;28;20019;-76
2023/06/01 13:30:22;;;;;;;5.93;2.85;;;31.50;47.20;;;;;;4975708;28;20097;-79
2023/06/01 13:32:48;;;;;;;6.75;2.83;;;31.50;44.80;;;;;;4984563;28;20210;-76
2023/06/01 13:35:13;;;;;;;6.65;3.38;;;32.00;45.40;;;;;;4973122;28;20018;-82